createdAt,value
2023-03-30T00:01:53.289Z,0.68
2023-03-30T00:05:04.358Z,0.42
2023-03-30T00:08:16.046Z,0.70
2023-03-30T00:11:28.606Z,0.60
2023-03-30T00:14:43.269Z,0.40
2023-03-30T00:17:57.237Z,0.55
2023-03-30T00:21:08.466Z,0.68
2023-03-30T00:24:18.197Z,0.80
2023-03-30T00:27:28.158Z,0.47
2023-03-30T00:30:40.931Z,0.40
2023-03-30T00:33:53.329Z,0.68
2023-03-30T00:37:03.657Z,0.50
2023-03-30T00:40:18.782Z,1.02
2023-03-30T00:43:30.791Z,0.80
2023-03-30T00:46:40.016Z,0.72
2023-03-30T00:49:50.261Z,0.57
2023-03-30T00:53:03.259Z,1.32
2023-03-30T00:56:14.226Z,0.82
2023-03-30T00:59:28.570Z,0.70
2023-03-30T01:02:40.515Z,0.68
2023-03-30T01:05:51.867Z,0.50
2023-03-30T01:09:02.679Z,0.75
2023-03-30T01:12:13.793Z,0.55
2023-03-30T01:15:27.073Z,0.88
2023-03-30T01:18:46.609Z,0.60
2023-03-30T01:22:15.233Z,0.88
2023-03-30T01:26:06.141Z,0.60
2023-03-30T01:29:17.803Z,0.75
2023-03-30T01:33:09.177Z,0.62
2023-03-30T01:36:34.338Z,0.60
2023-03-30T01:39:50.741Z,0.75
2023-03-30T01:43:00.696Z,0.33
2023-03-30T01:46:14.099Z,0.70
2023-03-30T01:52:37.399Z,0.50
2023-03-30T01:55:47.658Z,0.40
2023-03-30T01:58:59.784Z,0.40
2023-03-30T02:05:29.212Z,0.63
2023-03-30T02:08:40.600Z,0.57
2023-03-30T02:11:53.619Z,0.55
2023-03-30T02:15:02.660Z,0.55
2023-03-30T02:18:12.401Z,0.50
2023-03-30T02:21:22.175Z,0.93
2023-03-30T02:24:34.546Z,0.50
2023-03-30T02:27:45.755Z,1.07
2023-03-30T02:30:57.325Z,0.70
2023-03-30T02:34:15.803Z,0.85
2023-03-30T02:37:40.700Z,0.62
2023-03-30T02:40:51.765Z,0.60
2023-03-30T02:44:05.901Z,0.60
2023-03-30T02:47:17.984Z,0.60
2023-03-30T02:50:31.735Z,1.02
2023-03-30T02:53:45.589Z,0.82
2023-03-30T02:56:57.503Z,0.80
2023-03-30T03:00:11.269Z,0.50
2023-03-30T03:03:24.998Z,0.55
2023-03-30T03:06:33.654Z,0.40
2023-03-30T03:09:43.600Z,0.40
2023-03-30T03:12:56.135Z,0.62
2023-03-30T03:16:07.811Z,0.40
2023-03-30T03:19:17.726Z,0.60
2023-03-30T03:22:31.985Z,0.65
2023-03-30T03:25:41.920Z,0.40
2023-03-30T03:28:51.603Z,0.65
2023-03-30T03:32:00.751Z,0.55
2023-03-30T03:35:11.985Z,1.15
2023-03-30T03:38:23.747Z,0.75
2023-03-30T03:41:33.892Z,0.50
2023-03-30T03:44:44.354Z,0.62
2023-03-30T03:47:58.705Z,0.50
2023-03-30T03:51:11.740Z,0.50
2023-03-30T03:54:21.716Z,0.82
2023-03-30T03:57:29.255Z,0.60
2023-03-30T04:00:41.618Z,1.02
2023-03-30T04:03:49.666Z,0.72
2023-03-30T04:06:58.704Z,1.05
2023-03-30T04:10:08.443Z,0.53
2023-03-30T04:13:18.278Z,0.65
2023-03-30T04:16:29.076Z,0.78
2023-03-30T04:19:38.423Z,0.65
2023-03-30T04:22:51.866Z,0.62
2023-03-30T04:29:12.494Z,0.75
2023-03-30T04:32:21.763Z,0.80
2023-03-30T04:35:33.522Z,0.50
2023-03-30T04:38:43.524Z,0.55
2023-03-30T04:41:55.454Z,0.95
2023-03-30T04:45:07.267Z,0.53
2023-03-30T04:48:19.902Z,0.68
2023-03-30T04:51:28.672Z,0.87
2023-03-30T04:54:38.751Z,0.95
2023-03-30T04:57:48.951Z,0.55
2023-03-30T05:04:16.029Z,0.50
2023-03-30T05:07:28.488Z,0.40
2023-03-30T05:10:42.192Z,0.67
2023-03-30T05:13:52.605Z,0.53
2023-03-30T05:17:03.480Z,0.55
2023-03-30T05:20:16.735Z,0.62
2023-03-30T05:23:26.522Z,0.60
2023-03-30T05:26:36.488Z,0.68
2023-03-30T05:29:49.257Z,0.50
2023-03-30T05:33:02.487Z,0.40
2023-03-30T05:36:19.324Z,0.93
2023-03-30T05:39:30.971Z,0.90
2023-03-30T05:42:41.614Z,0.65
2023-03-30T05:45:52.345Z,0.50
2023-03-30T05:49:00.413Z,0.70
2023-03-30T05:52:10.747Z,0.40
2023-03-30T05:55:26.391Z,0.55
2023-03-30T05:58:39.050Z,0.78
2023-03-30T06:01:50.007Z,1.10
2023-03-30T06:05:00.691Z,0.50
2023-03-30T06:08:13.736Z,0.72
2023-03-30T06:11:25.267Z,0.70
2023-03-30T06:14:36.410Z,0.40
2023-03-30T06:17:47.364Z,0.68
2023-03-30T06:20:56.646Z,0.40
2023-03-30T06:24:10.192Z,0.50
2023-03-30T06:27:21.114Z,0.60
2023-03-30T06:30:30.413Z,0.80
2023-03-30T06:33:41.554Z,0.90
2023-03-30T06:36:51.195Z,0.70
2023-03-30T06:40:02.492Z,0.50
2023-03-30T06:43:15.395Z,0.62
2023-03-30T06:46:24.697Z,0.47
2023-03-30T06:49:34.867Z,0.68
2023-03-30T06:52:46.432Z,0.50
2023-03-30T06:55:58.723Z,0.72
2023-03-30T06:59:11.386Z,0.88
2023-03-30T07:02:22.050Z,0.78
2023-03-30T07:05:33.798Z,1.12
2023-03-30T07:08:42.657Z,0.88
2023-03-30T07:11:51.234Z,0.60
2023-03-30T07:15:01.421Z,0.33
2023-03-30T07:18:13.765Z,0.88
2023-03-30T07:21:22.580Z,0.50
2023-03-30T07:24:35.136Z,0.42
2023-03-30T07:27:44.841Z,0.50
2023-03-30T07:30:55.230Z,0.85
2023-03-30T07:34:06.132Z,0.57
2023-03-30T07:37:20.312Z,1.05
2023-03-30T07:40:27.684Z,0.68
2023-03-30T07:43:37.642Z,0.60
2023-03-30T07:46:48.462Z,0.37
2023-03-30T07:49:59.086Z,0.62
2023-03-30T07:53:08.439Z,0.60
2023-03-30T07:56:21.724Z,0.80
2023-03-30T07:59:33.745Z,0.57
2023-03-30T08:02:45.270Z,0.78
2023-03-30T08:06:01.494Z,0.70
2023-03-30T08:09:13.380Z,0.90
2023-03-30T08:12:26.157Z,0.80
2023-03-30T08:15:35.327Z,0.60
2023-03-30T08:18:46.370Z,0.82
2023-03-30T08:21:58.442Z,0.47
2023-03-30T08:25:11.616Z,0.65
2023-03-30T08:28:22.467Z,0.55
2023-03-30T08:31:33.210Z,0.70
2023-03-30T08:34:41.391Z,0.60
2023-03-30T08:37:51.567Z,0.40
2023-03-30T08:41:01.584Z,0.53
2023-03-30T08:44:12.058Z,0.50
2023-03-30T08:47:25.927Z,0.57
2023-03-30T08:50:39.227Z,0.72
2023-03-30T08:53:49.644Z,0.70
2023-03-30T08:57:07.573Z,0.50
2023-03-30T09:00:30.034Z,0.40
2023-03-30T09:03:41.223Z,0.57
2023-03-30T09:06:54.270Z,1.20
2023-03-30T09:10:05.610Z,0.78
2023-03-30T09:13:18.350Z,0.75
2023-03-30T09:16:34.409Z,0.85
2023-03-30T09:19:47.961Z,0.42
2023-03-30T09:23:03.577Z,0.65
2023-03-30T09:26:19.803Z,0.60
2023-03-30T09:29:31.656Z,0.70
2023-03-30T09:32:45.733Z,0.62
2023-03-30T09:36:12.423Z,0.50
2023-03-30T09:39:25.848Z,0.40
2023-03-30T09:45:45.420Z,0.50
2023-03-30T09:48:55.680Z,0.60
2023-03-30T09:52:10.096Z,0.60
2023-03-30T09:55:31.359Z,0.40
2023-03-30T09:58:43.211Z,0.70
2023-03-30T10:01:53.355Z,0.70
2023-03-30T10:05:09.156Z,0.72
2023-03-30T10:08:25.907Z,0.75
2023-03-30T10:11:40.610Z,0.90
2023-03-30T10:14:50.357Z,0.62
2023-03-30T10:18:01.357Z,0.78
2023-03-30T10:21:17.297Z,0.62
2023-03-30T10:24:29.818Z,0.70
2023-03-30T10:27:42.843Z,0.63
2023-03-30T10:30:57.561Z,1.37
2023-03-30T10:34:09.338Z,0.75
2023-03-30T10:37:21.618Z,1.15
2023-03-30T10:40:35.344Z,0.93
2023-03-30T10:43:46.260Z,0.70
2023-03-30T10:46:57.722Z,0.80
2023-03-30T10:50:11.212Z,0.55
2023-03-30T10:56:50.012Z,0.60
2023-03-30T11:00:15.198Z,0.60
2023-03-30T11:03:27.829Z,0.40
2023-03-30T11:06:43.236Z,0.95
2023-03-30T11:09:56.236Z,0.80
2023-03-30T11:13:06.963Z,0.50
2023-03-30T11:16:17.819Z,0.55
2023-03-30T11:19:28.416Z,0.55
2023-03-30T11:22:39.525Z,0.50
2023-03-30T11:25:56.166Z,0.40
2023-03-30T11:29:12.005Z,1.15
2023-03-30T11:32:31.059Z,1.15
2023-03-30T11:35:44.531Z,0.50
2023-03-30T11:42:06.106Z,0.62
2023-03-30T11:45:24.277Z,1.05
2023-03-30T11:49:09.270Z,0.50
2023-03-30T11:52:26.945Z,0.47
2023-03-30T11:55:44.772Z,0.42
2023-03-30T11:58:58.604Z,0.50
2023-03-30T12:02:16.632Z,0.88
2023-03-30T12:05:31.454Z,0.80
2023-03-30T12:09:20.925Z,1.10
2023-03-30T12:12:37.087Z,0.57
2023-03-30T12:15:49.406Z,0.40
2023-03-30T12:19:03.863Z,0.60
2023-03-30T12:22:17.863Z,0.35
2023-03-30T12:25:31.227Z,0.60
2023-03-30T12:29:26.288Z,0.60
2023-03-30T12:32:15.530Z,0.50
2023-03-30T12:36:12.645Z,0.47
2023-03-30T12:39:26.790Z,0.60
2023-03-30T12:42:41.164Z,0.93
2023-03-30T12:45:58.512Z,0.53
2023-03-30T12:49:11.585Z,0.60
2023-03-30T12:52:22.004Z,0.68
2023-03-30T12:55:38.871Z,0.72
2023-03-30T12:59:02.764Z,0.68
2023-03-30T13:02:24.145Z,0.55
2023-03-30T13:05:39.167Z,0.60
2023-03-30T13:08:50.161Z,0.50
2023-03-30T13:12:33.539Z,0.78
2023-03-30T13:15:48.701Z,0.50
2023-03-30T13:19:03.304Z,0.60
2023-03-30T13:22:37.460Z,0.60
2023-03-30T13:25:51.844Z,0.60
2023-03-30T13:29:22.545Z,0.40
2023-03-30T13:32:38.356Z,0.68
2023-03-30T13:36:02.414Z,0.45
2023-03-30T13:39:18.299Z,0.62
2023-03-30T13:42:38.494Z,0.60
2023-03-30T13:45:55.011Z,0.90
2023-03-30T13:49:22.498Z,0.60
2023-03-30T13:52:38.154Z,0.70
2023-03-30T13:55:47.766Z,0.50
2023-03-30T13:59:03.097Z,1.05
2023-03-30T14:02:18.667Z,0.50
2023-03-30T14:05:29.543Z,0.70
2023-03-30T14:08:42.237Z,0.78
2023-03-30T14:11:53.004Z,0.50
2023-03-30T14:15:03.763Z,0.60
2023-03-30T14:18:15.918Z,0.78
2023-03-30T14:21:29.937Z,0.47
2023-03-30T14:24:42.006Z,0.60
2023-03-30T14:27:52.685Z,0.53
2023-03-30T14:31:07.161Z,0.65
2023-03-30T14:34:29.845Z,0.50
2023-03-30T14:37:46.644Z,0.60
2023-03-30T14:40:56.527Z,0.70
2023-03-30T14:44:06.182Z,0.70
2023-03-30T14:47:16.996Z,0.90
2023-03-30T14:50:27.628Z,1.00
2023-03-30T14:53:37.720Z,0.95
2023-03-30T14:56:48.694Z,0.80
2023-03-30T15:00:01.063Z,0.98
2023-03-30T15:03:26.452Z,0.60
2023-03-30T15:06:31.137Z,0.60
2023-03-30T15:09:44.252Z,0.95
2023-03-30T15:16:03.294Z,0.68
2023-03-30T15:19:18.980Z,0.60
2023-03-30T15:22:34.138Z,0.65
2023-03-30T15:25:47.304Z,0.78
2023-03-30T15:32:15.307Z,0.57
2023-03-30T15:35:31.342Z,0.50
2023-03-30T15:38:42.122Z,0.72
2023-03-30T15:41:53.577Z,0.57
2023-03-30T15:45:13.248Z,0.50
2023-03-30T15:48:27.683Z,0.78
2023-03-30T15:51:38.637Z,0.60
2023-03-30T15:54:49.978Z,0.50
2023-03-30T15:57:58.550Z,0.80
2023-03-30T16:01:10.914Z,0.53
2023-03-30T16:04:21.652Z,0.68
2023-03-30T16:07:29.954Z,0.62
2023-03-30T16:10:42.516Z,0.93
2023-03-30T16:13:52.246Z,0.33
2023-03-30T16:17:03.481Z,0.80
2023-03-30T16:20:21.917Z,0.57
2023-03-30T16:23:33.222Z,0.95
2023-03-30T16:26:44.806Z,0.72
2023-03-30T16:29:55.391Z,0.80
2023-03-30T16:33:05.652Z,0.53
2023-03-30T16:36:18.850Z,0.82
2023-03-30T16:42:37.429Z,0.88
2023-03-30T16:45:48.871Z,0.50
2023-03-30T16:48:59.592Z,0.80
2023-03-30T16:52:10.441Z,0.60
2023-03-30T16:55:21.406Z,0.75
2023-03-30T16:58:32.963Z,0.50
2023-03-30T17:01:42.907Z,1.10
2023-03-30T17:04:53.801Z,0.67
2023-03-30T17:08:10.851Z,0.50
2023-03-30T17:11:21.661Z,1.07
2023-03-30T17:14:31.518Z,0.60
2023-03-30T17:17:44.280Z,0.75
2023-03-30T17:20:55.342Z,0.55
2023-03-30T17:24:07.516Z,0.40
2023-03-30T17:27:20.223Z,0.82
2023-03-30T17:30:33.525Z,0.78
2023-03-30T17:33:43.239Z,0.50
2023-03-30T17:36:57.528Z,0.60
2023-03-30T17:40:15.932Z,0.60
2023-03-30T17:43:25.131Z,0.53
2023-03-30T17:46:36.111Z,0.72
2023-03-30T17:49:47.106Z,0.68
2023-03-30T17:52:54.452Z,0.50
2023-03-30T17:56:04.085Z,0.70
2023-03-30T17:59:17.536Z,1.10
2023-03-30T18:02:30.588Z,0.55
2023-03-30T18:09:00.158Z,0.80
2023-03-30T18:12:13.705Z,0.65
2023-03-30T18:15:27.013Z,0.68
2023-03-30T18:18:36.933Z,1.20
2023-03-30T18:21:47.584Z,0.70
2023-03-30T18:24:56.652Z,0.50
2023-03-30T18:28:06.554Z,0.47
2023-03-30T18:31:17.866Z,0.75
2023-03-30T18:34:32.558Z,0.62
2023-03-30T18:37:45.731Z,0.65
2023-03-30T18:44:06.251Z,0.65
2023-03-30T18:47:17.022Z,1.02
2023-03-30T18:50:33.898Z,1.07
2023-03-30T18:53:44.507Z,0.60
2023-03-30T18:56:55.426Z,0.82
2023-03-30T19:00:07.574Z,0.60
2023-03-30T19:03:20.261Z,1.15
2023-03-30T19:06:29.477Z,0.70
2023-03-30T19:09:43.232Z,1.00
2023-03-30T19:12:52.558Z,0.60
2023-03-30T19:16:05.955Z,0.60
2023-03-30T19:19:19.731Z,0.55
2023-03-30T19:22:31.591Z,0.50
2023-03-30T19:25:43.426Z,0.60
2023-03-30T19:28:55.113Z,0.70
2023-03-30T19:32:04.909Z,1.25
2023-03-30T19:35:15.842Z,0.70
2023-03-30T19:38:27.439Z,0.80
2023-03-30T19:41:36.894Z,0.62
2023-03-30T19:44:46.545Z,1.25
2023-03-30T19:47:57.530Z,0.98
2023-03-30T19:51:08.589Z,0.50
2023-03-30T19:54:17.754Z,0.53
2023-03-30T19:57:27.686Z,0.78
2023-03-30T20:00:38.066Z,0.53
2023-03-30T20:03:51.730Z,0.72
2023-03-30T20:07:02.797Z,0.60
2023-03-30T20:10:14.877Z,1.00
2023-03-30T20:13:26.955Z,0.78
2023-03-30T20:16:38.707Z,0.45
2023-03-30T20:19:51.544Z,0.88
2023-03-30T20:23:03.945Z,0.50
2023-03-30T20:26:14.773Z,0.78
2023-03-30T20:29:26.715Z,0.70
2023-03-30T20:32:37.857Z,0.40
2023-03-30T20:35:49.075Z,0.82
2023-03-30T20:39:01.060Z,1.00
2023-03-30T20:42:12.164Z,0.85
2023-03-30T20:45:24.046Z,0.65
2023-03-30T20:48:33.434Z,0.65
2023-03-30T20:51:44.987Z,1.00
2023-03-30T20:58:14.935Z,0.87
2023-03-30T21:01:28.142Z,0.80
2023-03-30T21:04:39.744Z,0.60
2023-03-30T21:07:54.305Z,0.65
2023-03-30T21:11:05.485Z,1.37
2023-03-30T21:14:16.812Z,0.90
2023-03-30T21:17:26.877Z,0.85
2023-03-30T21:20:38.519Z,0.75
2023-03-30T21:23:49.598Z,0.70
2023-03-30T21:27:01.055Z,0.95
2023-03-30T21:30:14.937Z,1.15
2023-03-30T21:33:26.737Z,0.57
2023-03-30T21:36:36.345Z,0.80
2023-03-30T21:39:46.953Z,1.10
2023-03-30T21:42:57.052Z,0.60
2023-03-30T21:46:10.780Z,0.70
2023-03-30T21:49:19.363Z,1.17
2023-03-30T21:52:31.306Z,0.93
2023-03-30T21:55:41.520Z,0.80
2023-03-30T21:58:52.505Z,2.50
2023-03-30T22:02:06.455Z,1.57
2023-03-30T22:05:17.656Z,1.00
2023-03-30T22:08:30.273Z,1.75
2023-03-30T22:11:39.514Z,2.25
2023-03-30T22:14:53.336Z,5.20
2023-03-30T22:18:05.597Z,2.33
2023-03-30T22:21:17.216Z,3.50
2023-03-30T22:24:27.728Z,2.77
2023-03-30T22:27:39.925Z,3.55
2023-03-30T22:30:52.168Z,2.30
2023-03-30T22:34:03.226Z,2.17
2023-03-30T22:37:12.599Z,2.08
2023-03-30T22:40:28.051Z,1.72
2023-03-30T22:43:37.614Z,1.40
2023-03-30T22:46:52.103Z,1.65
2023-03-30T22:50:05.441Z,1.65
2023-03-30T22:53:18.569Z,1.25
2023-03-30T22:56:27.842Z,1.45
2023-03-30T22:59:38.759Z,2.02
2023-03-30T23:02:49.885Z,2.83
2023-03-30T23:06:01.692Z,2.05
2023-03-30T23:09:15.112Z,1.82
2023-03-30T23:15:36.376Z,1.77
2023-03-30T23:18:45.299Z,1.77
2023-03-30T23:21:59.955Z,1.30
2023-03-30T23:25:14.363Z,1.25
2023-03-30T23:28:22.638Z,1.25
2023-03-30T23:31:34.045Z,1.45
2023-03-30T23:34:44.733Z,1.55
2023-03-30T23:37:57.336Z,2.77
2023-03-30T23:41:07.131Z,1.70
2023-03-30T23:44:17.923Z,1.20
2023-03-30T23:47:27.921Z,1.55
2023-03-30T23:50:40.522Z,1.22
2023-03-30T23:53:53.563Z,1.40
2023-03-30T23:57:08.343Z,1.10
